Time;durP1;ratioP1;P1;durP2;ratioP2;P2;SDS_P1;SDS_P2;PMS_P1;PMS_P2;Temp;Humidity;BMP_temperature;BMP_pressure;BME280_temperature;BME280_humidity;BME280_pressure;Samples;Min_cycle;Max_cycle;Signal;HPM_P1;HPM_P2
2022/05/30 00:01:22;;;;;;;4.93;2.00;;;435.20;2355.20;;;;;;5048936;28;20492;-74
2022/05/30 00:03:48;;;;;;;4.13;2.22;;;410.50;2355.20;;;;;;5051764;28;20090;-75
2022/05/30 00:06:17;;;;;;;6.07;2.13;;;410.50;2355.20;;;;;;5051816;28;20021;-74
2022/05/30 00:08:43;;;;;;;3.53;2.03;;;410.50;2355.20;;;;;;5048406;28;20025;-75
2022/05/30 00:11:12;;;;;;;5.20;1.83;;;410.50;2355.20;;;;;;5052007;28;20096;-74
2022/05/30 00:13:38;;;;;;;3.42;1.90;;;410.50;2355.20;;;;;;5051549;28;20021;-75
2022/05/30 00:16:09;;;;;;;5.28;2.03;;;435.20;2355.20;;;;;;5051335;28;20028;-78
2022/05/30 00:18:35;;;;;;;6.70;2.20;;;410.50;2355.20;;;;;;5051303;28;20017;-75
2022/05/30 00:21:01;;;;;;;4.47;2.67;;;435.20;2355.20;;;;;;5051058;28;20085;-76
2022/05/30 00:23:27;;;;;;;7.22;2.42;;;435.30;2355.20;;;;;;5049818;28;20029;-75
2022/05/30 00:25:53;;;;;;;8.07;2.45;;;435.40;2355.20;;;;;;5051195;28;20489;-77
2022/05/30 00:28:19;;;;;;;5.10;2.42;;;435.40;2355.20;;;;;;5051819;28;20024;-74
2022/05/30 00:30:46;;;;;;;3.92;2.53;;;435.50;2355.20;;;;;;5052258;28;20033;-78
2022/05/30 00:33:13;;;;;;;4.60;2.28;;;435.40;2355.20;;;;;;5054270;28;20110;-75
2022/05/30 00:35:40;;;;;;;6.38;2.33;;;435.30;2355.20;;;;;;5055320;28;20521;-74
2022/05/30 00:38:06;;;;;;;8.40;2.58;;;435.20;2355.20;;;;;;5053388;28;20021;-77
2022/05/30 00:40:33;;;;;;;4.95;2.13;;;435.20;2355.20;;;;;;5055075;28;20025;-76
2022/05/30 00:43:17;;;;;;;12.68;2.58;;;410.50;2355.20;;;;;;5055655;28;20029;-74
2022/05/30 00:45:43;;;;;;;5.18;2.42;;;410.50;2355.20;;;;;;5053206;28;20040;-75
2022/05/30 00:48:09;;;;;;;6.55;2.17;;;410.30;2355.20;;;;;;5055612;28;20129;-75
2022/05/30 00:50:36;;;;;;;5.20;3.15;;;410.30;2355.20;;;;;;5039173;28;20029;-75
2022/05/30 00:53:02;;;;;;;4.60;2.28;;;410.30;2355.20;;;;;;5052570;28;20096;-75
2022/05/30 00:55:28;;;;;;;4.03;2.50;;;410.30;2355.20;;;;;;5055430;28;20175;-76
2022/05/30 00:57:55;;;;;;;6.13;2.60;;;410.30;2355.20;;;;;;5055329;28;20021;-75
2022/05/30 01:00:25;;;;;;;4.38;2.28;;;410.30;2355.20;;;;;;5055079;28;20033;-74
2022/05/30 01:06:30;;;;;;;7.15;2.80;;;410.30;2355.20;;;;;;5055331;28;20029;-78
2022/05/30 01:08:26;;;;;;;4.50;2.40;;;410.20;2355.20;;;;;;5044044;28;20032;-75
2022/05/30 01:10:53;;;;;;;6.28;3.03;;;410.20;2355.20;;;;;;5053978;28;20033;-75
2022/05/30 01:13:18;;;;;;;6.53;2.55;;;410.20;2355.20;;;;;;5054853;28;20461;-75
2022/05/30 01:15:44;;;;;;;6.53;2.35;;;410.30;2355.20;;;;;;5055277;28;20017;-75
2022/05/30 01:18:23;;;;;;;5.13;2.75;;;410.40;2355.20;;;;;;5054908;28;20034;-75
2022/05/30 01:21:25;;;;;;;5.40;2.50;;;410.50;2355.20;;;;;;5052996;28;20057;-76
2022/05/30 01:24:14;;;;;;;8.23;3.10;;;410.40;2355.20;;;;;;5054959;28;20420;-74
2022/05/30 01:27:10;;;;;;;12.23;4.32;;;410.40;2355.20;;;;;;5054439;28;20024;-75
2022/05/30 01:29:44;;;;;;;6.32;3.63;;;410.30;2355.20;;;;;;5053342;28;20029;-75
2022/05/30 01:32:15;;;;;;;9.25;4.05;;;410.30;2355.20;;;;;;5052743;28;20017;-77
2022/05/30 01:34:41;;;;;;;12.52;4.00;;;410.20;2355.20;;;;;;5054368;28;20028;-75
2022/05/30 01:37:07;;;;;;;9.75;3.45;;;410.20;2355.20;;;;;;5054568;28;20457;-75
2022/05/30 01:39:32;;;;;;;5.75;2.63;;;410.20;2355.20;;;;;;5054482;28;20080;-75
2022/05/30 01:41:58;;;;;;;6.18;2.92;;;410.20;2355.20;;;;;;5053534;28;20041;-76
2022/05/30 01:44:24;;;;;;;6.68;3.60;;;410.20;2355.20;;;;;;5054589;28;20086;-75
2022/05/30 01:46:50;;;;;;;7.55;2.95;;;410.10;2355.20;;;;;;5054268;28;20048;-74
2022/05/30 01:49:16;;;;;;;6.72;3.33;;;410.00;2355.20;;;;;;5054440;28;20492;-78
2022/05/30 01:51:42;;;;;;;8.90;2.97;;;410.10;2355.20;;;;;;5054197;28;20060;-77
2022/05/30 01:54:08;;;;;;;11.40;2.97;;;410.20;2355.20;;;;;;5054230;28;20017;-75
2022/05/30 01:56:34;;;;;;;4.57;2.50;;;410.20;2355.20;;;;;;5054278;28;20032;-75
2022/05/30 01:58:59;;;;;;;9.23;3.20;;;410.20;2355.20;;;;;;5052500;28;20067;-75
2022/05/30 02:01:27;;;;;;;8.15;3.28;;;410.20;2355.20;;;;;;5054051;28;20033;-76
2022/05/30 02:03:54;;;;;;;5.82;3.03;;;410.10;2355.20;;;;;;5053942;28;20029;-74
2022/05/30 02:06:22;;;;;;;6.35;2.53;;;410.10;2355.20;;;;;;5054149;28;20400;-74
2022/05/30 02:08:48;;;;;;;7.00;2.83;;;410.10;2355.20;;;;;;5053929;28;20048;-75
2022/05/30 02:11:16;;;;;;;4.95;2.90;;;410.20;2355.20;;;;;;5054068;28;20021;-75
2022/05/30 02:13:42;;;;;;;7.30;3.22;;;410.20;2355.20;;;;;;5053932;28;20025;-77
2022/05/30 02:18:58;;;;;;;6.13;2.83;;;410.20;2355.20;;;;;;5052707;28;20027;-75
2022/05/30 02:21:24;;;;;;;7.63;2.90;;;410.10;2355.20;;;;;;5052326;28;20041;-76
2022/05/30 02:23:50;;;;;;;8.32;3.20;;;410.10;2355.20;;;;;;5054006;28;20456;-75
2022/05/30 02:26:16;;;;;;;7.70;2.78;;;410.00;2355.20;;;;;;5053662;28;20049;-77
2022/05/30 02:28:42;;;;;;;5.80;3.13;;;409.60;2355.20;;;;;;5053463;28;20361;-75
2022/05/30 02:31:07;;;;;;;5.03;2.95;;;409.90;2355.20;;;;;;5053757;28;20029;-75
2022/05/30 02:39:02;;;;;;;5.35;3.00;;;409.70;2355.20;;;;;;5052971;28;20036;-75
2022/05/30 02:41:28;;;;;;;6.30;2.72;;;409.80;2355.20;;;;;;5051946;28;20033;-75
2022/05/30 02:43:53;;;;;;;5.18;2.80;;;409.80;2355.20;;;;;;5053362;28;20460;-78
2022/05/30 02:46:19;;;;;;;8.60;2.85;;;409.70;2355.20;;;;;;5053183;28;20024;-75
2022/05/30 02:48:45;;;;;;;8.77;3.10;;;409.70;2355.20;;;;;;5053288;28;20028;-75
2022/05/30 02:51:11;;;;;;;5.05;2.92;;;409.80;2355.20;;;;;;5052971;28;20108;-75
2022/05/30 02:53:37;;;;;;;6.40;3.03;;;409.80;2355.20;;;;;;5053251;28;20025;-77
2022/05/30 02:56:03;;;;;;;4.80;2.70;;;409.80;2355.20;;;;;;5052958;28;20108;-74
2022/05/30 02:58:29;;;;;;;4.90;2.90;;;409.70;2355.20;;;;;;5053179;28;20033;-78
2022/05/30 03:00:55;;;;;;;6.63;3.63;;;409.70;2355.20;;;;;;5052682;28;20045;-77
2022/05/30 03:03:21;;;;;;;10.18;3.22;;;409.80;2355.20;;;;;;5052845;28;20518;-75
2022/05/30 03:05:46;;;;;;;6.07;3.88;;;409.80;2355.20;;;;;;5052879;28;20021;-78
2022/05/30 03:08:12;;;;;;;6.97;3.97;;;409.70;2355.20;;;;;;5052821;28;20071;-75
2022/05/30 03:10:38;;;;;;;4.18;3.17;;;409.80;2355.20;;;;;;5053010;28;20025;-75
2022/05/30 03:13:05;;;;;;;16.17;4.60;;;409.80;2355.20;;;;;;5052652;28;20031;-74
2022/05/30 03:15:31;;;;;;;9.63;4.88;;;409.90;2355.20;;;;;;5052711;28;20025;-76
2022/05/30 03:17:57;;;;;;;8.13;3.85;;;409.80;2355.20;;;;;;5052692;28;20048;-75
2022/05/30 03:20:24;;;;;;;4.28;3.08;;;409.80;2355.20;;;;;;5052655;28;20029;-76
2022/05/30 03:22:50;;;;;;;6.45;3.58;;;409.90;2355.20;;;;;;5051350;28;20029;-75
2022/05/30 03:25:17;;;;;;;6.22;2.70;;;409.90;2355.20;;;;;;5052709;28;20051;-75
2022/05/30 03:27:43;;;;;;;6.00;3.60;;;409.90;2355.20;;;;;;5052398;28;20043;-76
2022/05/30 03:30:11;;;;;;;5.15;3.10;;;409.90;2355.20;;;;;;5049181;28;20028;-77
2022/05/30 03:32:37;;;;;;;6.18;3.05;;;409.90;2355.20;;;;;;5052156;28;20021;-74
2022/05/30 03:35:05;;;;;;;9.45;3.00;;;409.70;2355.20;;;;;;5052156;28;20484;-75
2022/05/30 03:37:31;;;;;;;4.78;2.95;;;409.70;2355.20;;;;;;5049914;28;20025;-75
2022/05/30 03:39:57;;;;;;;5.93;2.78;;;409.70;2355.20;;;;;;5050655;28;20024;-77
2022/05/30 03:42:23;;;;;;;6.07;2.65;;;409.70;2355.20;;;;;;5052319;28;20041;-75
2022/05/30 03:44:49;;;;;;;5.13;2.75;;;409.70;2355.20;;;;;;5050686;28;20028;-75
2022/05/30 03:47:15;;;;;;;5.95;3.20;;;409.70;2355.20;;;;;;5052834;28;20057;-75
2022/05/30 03:49:40;;;;;;;8.20;2.72;;;409.60;2355.20;;;;;;5052114;28;20056;-76
2022/05/30 03:52:07;;;;;;;4.18;2.90;;;409.60;2355.20;;;;;;5052141;28;20067;-74
2022/05/30 03:54:33;;;;;;;4.63;2.35;;;409.60;2355.20;;;;;;5051854;28;20059;-75
2022/05/30 03:56:58;;;;;;;5.18;2.83;;;409.60;2355.20;;;;;;5051815;28;20021;-75
2022/05/30 03:59:24;;;;;;;6.07;2.45;;;384.90;2329.60;;;;;;5051953;28;20040;-75
2022/05/30 04:01:50;;;;;;;7.22;2.65;;;384.90;2329.60;;;;;;5048858;28;20040;-74
2022/05/30 04:04:16;;;;;;;4.82;2.63;;;384.90;2329.60;;;;;;5051382;28;20021;-76
2022/05/30 04:06:41;;;;;;;6.72;3.75;;;409.60;2355.20;;;;;;5051927;28;20037;-75
2022/05/30 04:09:08;;;;;;;12.25;3.42;;;409.60;2355.20;;;;;;5051842;28;20020;-75
2022/05/30 04:11:35;;;;;;;6.45;3.40;;;409.60;2355.20;;;;;;5051744;28;20020;-74
2022/05/30 04:14:01;;;;;;;8.65;3.10;;;409.60;2355.20;;;;;;5050290;28;20464;-75
2022/05/30 04:16:27;;;;;;;9.13;3.47;;;409.60;2355.20;;;;;;5051577;28;20035;-77
2022/05/30 04:18:52;;;;;;;4.97;3.22;;;409.70;2355.20;;;;;;5050695;28;20419;-77
2022/05/30 04:21:18;;;;;;;7.18;2.67;;;409.70;2355.20;;;;;;5051708;28;20035;-76
2022/05/30 04:23:44;;;;;;;6.38;3.10;;;409.70;2355.20;;;;;;5051628;28;20066;-77
2022/05/30 04:26:13;;;;;;;7.70;2.78;;;409.80;2355.20;;;;;;5050614;28;20017;-77
2022/05/30 04:28:38;;;;;;;6.45;3.05;;;409.80;2355.20;;;;;;5051538;28;20036;-76
2022/05/30 04:31:12;;;;;;;5.10;2.97;;;409.80;2355.20;;;;;;5051785;28;20017;-77
2022/05/30 04:33:42;;;;;;;4.82;2.63;;;409.80;2355.20;;;;;;5049699;28;20025;-77
2022/05/30 04:36:09;;;;;;;8.43;2.65;;;410.00;2355.20;;;;;;5052834;28;20531;-76
2022/05/30 04:38:35;;;;;;;6.63;2.42;;;410.00;2355.20;;;;;;5050333;28;20036;-77
2022/05/30 04:41:01;;;;;;;6.28;2.75;;;410.00;2355.20;;;;;;5050157;28;20036;-78
2022/05/30 04:43:27;;;;;;;6.18;3.00;;;410.00;2355.20;;;;;;5051936;28;20043;-77
2022/05/30 04:46:21;;;;;;;5.95;2.67;;;410.10;2355.20;;;;;;5047959;28;20362;-78
2022/05/30 04:48:47;;;;;;;11.38;3.20;;;410.00;2355.20;;;;;;5049743;28;20029;-76
2022/05/30 04:51:13;;;;;;;3.65;2.30;;;410.00;2355.20;;;;;;5048765;28;20028;-74
2022/05/30 04:53:40;;;;;;;6.47;3.08;;;410.10;2355.20;;;;;;5051534;28;20101;-74
2022/05/30 04:56:06;;;;;;;7.82;2.95;;;410.20;2355.20;;;;;;5051434;28;20075;-74
2022/05/30 04:58:34;;;;;;;4.75;2.63;;;409.70;2355.20;;;;;;5050869;28;20092;-75
2022/05/30 05:01:04;;;;;;;5.55;2.75;;;410.30;2355.20;;;;;;5050274;28;20037;-77
2022/05/30 05:03:31;;;;;;;7.45;3.30;;;410.30;2355.20;;;;;;5050129;28;20071;-77
2022/05/30 05:06:05;;;;;;;4.43;2.95;;;410.50;2355.20;;;;;;5051421;28;20106;-75
2022/05/30 05:09:18;;;;;;;5.50;3.25;;;435.20;2355.20;;;;;;5051409;28;20544;-77
2022/05/30 05:11:47;;;;;;;6.50;2.72;;;435.20;2355.20;;;;;;4993360;28;20030;-76
2022/05/30 05:14:15;;;;;;;8.48;3.60;;;410.50;2355.20;;;;;;4993411;28;20515;-77
2022/05/30 05:16:41;;;;;;;4.18;2.90;;;435.30;2355.20;;;;;;5013654;28;20445;-77
2022/05/30 05:19:07;;;;;;;7.03;3.58;;;435.30;2355.20;;;;;;5013143;28;20141;-74
2022/05/30 05:21:38;;;;;;;13.82;4.10;;;435.20;2355.20;;;;;;5012911;28;20076;-77
2022/05/30 05:24:05;;;;;;;8.73;2.88;;;435.30;2355.20;;;;;;5013142;28;20117;-76
2022/05/30 05:26:31;;;;;;;5.25;2.90;;;435.30;2355.20;;;;;;4996620;28;20022;-76
2022/05/30 05:28:57;;;;;;;5.60;3.10;;;435.30;2355.20;;;;;;5012748;28;20397;-77
2022/05/30 05:31:31;;;;;;;9.32;3.38;;;435.30;2355.20;;;;;;5012990;28;20578;-74
2022/05/30 05:33:57;;;;;;;7.05;3.03;;;435.30;2355.20;;;;;;5012998;28;20084;-76
2022/05/30 05:36:27;;;;;;;5.57;3.50;;;435.40;2355.20;;;;;;5012702;28;20432;-75
2022/05/30 05:38:53;;;;;;;5.55;2.92;;;435.40;2355.20;;;;;;5012878;28;20029;-74
2022/05/30 05:41:21;;;;;;;7.45;3.28;;;435.50;2355.20;;;;;;5012643;28;20038;-76
2022/05/30 05:43:47;;;;;;;5.40;3.58;;;435.30;2355.20;;;;;;4996502;28;20042;-75
2022/05/30 05:46:19;;;;;;;4.55;3.17;;;435.40;2355.20;;;;;;5019093;28;20075;-75
2022/05/30 05:48:45;;;;;;;5.30;3.35;;;435.40;2355.20;;;;;;5054375;28;20460;-75
2022/05/30 05:51:13;;;;;;;7.88;3.85;;;435.40;2355.20;;;;;;5054403;28;20032;-75
2022/05/30 05:53:40;;;;;;;5.95;3.53;;;435.50;2355.20;;;;;;5053030;28;20029;-76
2022/05/30 05:56:18;;;;;;;7.82;3.17;;;435.50;2355.20;;;;;;5054156;28;20017;-76
2022/05/30 05:58:44;;;;;;;22.63;4.70;;;435.60;2355.20;;;;;;5051068;28;20035;-76
2022/05/30 06:01:12;;;;;;;7.30;3.85;;;435.50;2355.20;;;;;;5054725;28;20485;-76
2022/05/30 06:03:38;;;;;;;9.20;4.13;;;435.70;2355.20;;;;;;5054589;28;20083;-77
2022/05/30 06:06:05;;;;;;;7.68;3.92;;;435.70;2355.20;;;;;;5053826;28;20037;-74
2022/05/30 06:08:32;;;;;;;9.43;3.63;;;435.90;2355.20;;;;;;5054227;28;20035;-82
2022/05/30 06:11:15;;;;;;;6.05;3.85;;;436.00;2355.20;;;;;;5054428;28;20031;-76
2022/05/30 06:13:44;;;;;;;5.55;3.42;;;460.80;2380.80;;;;;;5053312;28;20476;-76
2022/05/30 06:16:16;;;;;;;7.45;3.42;;;460.80;2380.80;;;;;;5054179;28;20033;-73
2022/05/30 06:18:42;;;;;;;6.45;3.38;;;460.80;2380.80;;;;;;5054133;28;20048;-73
2022/05/30 06:21:08;;;;;;;5.43;3.30;;;460.80;2380.80;;;;;;5054248;28;20060;-73
2022/05/30 06:23:34;;;;;;;4.68;3.50;;;460.80;2380.80;;;;;;5054247;28;20524;-75
2022/05/30 06:26:04;;;;;;;7.00;4.03;;;460.80;2380.80;;;;;;5053833;28;20546;-73
2022/05/30 06:28:32;;;;;;;5.63;3.25;;;436.10;2355.20;;;;;;5053959;28;20035;-76
2022/05/30 11:30:35;;;;;;;9.50;6.40;;;538.40;2406.40;;;;;;5130130;27;20439;-73
2022/05/30 11:33:23;;;;;;;10.30;6.57;;;563.50;2432.00;;;;;;5118146;27;20551;-73
2022/05/30 11:36:31;;;;;;;9.07;6.22;;;563.30;2432.00;;;;;;5089292;28;20033;-73
2022/05/30 11:39:21;;;;;;;10.05;6.68;;;538.50;2406.40;;;;;;5117752;28;20032;-73
2022/05/30 11:42:17;;;;;;;8.52;6.25;;;538.40;2406.40;;;;;;5101766;28;20102;-74
2022/05/30 11:44:53;;;;;;;10.40;6.68;;;538.40;2406.40;;;;;;5108297;28;20026;-73
2022/05/30 11:47:37;;;;;;;11.60;6.75;;;538.10;2406.40;;;;;;5107871;28;20028;-73
2022/05/30 11:50:11;;;;;;;8.35;6.15;;;538.00;2406.40;;;;;;5109169;28;20028;-74
2022/05/30 11:53:08;;;;;;;10.63;6.53;;;538.00;2406.40;;;;;;5112642;28;20496;-74
2022/05/30 11:55:55;;;;;;;13.18;8.27;;;538.00;2406.40;;;;;;5127867;28;20072;-73
2022/05/30 11:58:23;;;;;;;12.52;7.85;;;538.10;2406.40;;;;;;5120030;28;20067;-74
2022/05/30 12:00:51;;;;;;;13.18;7.07;;;538.20;2406.40;;;;;;5107671;28;20036;-73
2022/05/30 12:03:32;;;;;;;15.32;7.07;;;538.30;2406.40;;;;;;5108995;28;20469;-74
2022/05/30 12:06:22;;;;;;;10.82;6.60;;;538.50;2406.40;;;;;;5108549;28;20024;-74
2022/05/30 12:09:07;;;;;;;12.60;7.53;;;538.50;2406.40;;;;;;5109042;28;20024;-74
2022/05/30 12:11:51;;;;;;;13.40;7.55;;;563.20;2432.00;;;;;;5113653;28;20076;-74
2022/05/30 12:14:26;;;;;;;13.73;7.57;;;563.20;2432.00;;;;;;5113248;28;20032;-73
2022/05/30 12:17:16;;;;;;;11.55;6.43;;;563.20;2432.00;;;;;;5108835;28;20024;-74
2022/05/30 12:25:36;;;;;;;16.05;7.28;;;589.50;2432.00;;;;;;5106032;28;20109;-77
2022/05/30 12:28:04;;;;;;;15.07;8.25;;;589.20;2432.00;;;;;;5085617;28;20036;-76
2022/05/30 12:30:36;;;;;;;14.07;9.00;;;589.00;2432.00;;;;;;5090314;28;20492;-74
2022/05/30 12:33:31;;;;;;;11.85;7.10;;;589.00;2432.00;;;;;;5082566;28;20051;-75
2022/05/30 12:36:09;;;;;;;12.25;7.50;;;588.80;2432.00;;;;;;5085223;28;20024;-75
2022/05/30 12:38:54;;;;;;;11.70;7.65;;;588.80;2432.00;;;;;;5087853;28;20036;-73
2022/05/30 12:41:54;;;;;;;15.00;7.22;;;588.80;2432.00;;;;;;5087753;28;20020;-74
2022/05/30 12:44:25;;;;;;;12.35;6.90;;;588.80;2432.00;;;;;;5084197;28;20044;-74
2022/05/30 12:47:07;;;;;;;10.35;6.68;;;564.00;2432.00;;;;;;5083157;28;20024;-75
2022/05/30 12:49:34;;;;;;;13.48;6.88;;;563.90;2432.00;;;;;;5083120;28;20095;-74
2022/05/30 12:52:21;;;;;;;11.88;7.13;;;563.90;2432.00;;;;;;5081839;28;20031;-73
2022/05/30 12:54:58;;;;;;;11.32;7.03;;;563.70;2432.00;;;;;;5090180;28;20049;-72
2022/05/30 12:57:45;;;;;;;13.82;7.15;;;563.60;2432.00;;;;;;5094575;28;20031;-72
2022/05/30 13:00:16;;;;;;;;;;;563.60;2432.00;;;;;;5086711;28;20132;-74
2022/05/30 13:03:03;;;;;;;16.48;7.10;;;563.60;2432.00;;;;;;5094049;28;19908;-73
2022/05/30 13:05:38;;;;;;;12.00;7.15;;;563.50;2432.00;;;;;;5073820;28;20112;-73
2022/05/30 13:08:42;;;;;;;10.32;7.55;;;563.60;2432.00;;;;;;5087370;28;20095;-73
2022/05/30 13:11:10;;;;;;;9.73;6.78;;;563.60;2432.00;;;;;;5087886;28;20073;-74
2022/05/30 13:13:41;;;;;;;15.70;7.53;;;563.40;2432.00;;;;;;5084242;28;20094;-76
2022/05/30 13:16:17;;;;;;;14.90;7.07;;;563.30;2432.00;;;;;;5084789;28;20027;-74
2022/05/30 13:18:44;;;;;;;12.45;6.63;;;563.30;2432.00;;;;;;5083876;28;20025;-75
2022/05/30 13:21:12;;;;;;;11.75;6.85;;;563.30;2432.00;;;;;;5082224;28;20066;-73
2022/05/30 13:23:38;;;;;;;12.05;7.00;;;563.40;2432.00;;;;;;5082754;28;20027;-74
2022/05/30 13:26:10;;;;;;;14.60;6.90;;;563.60;2432.00;;;;;;5083684;28;20016;-76
2022/05/30 13:28:41;;;;;;;13.00;6.50;;;563.60;2432.00;;;;;;5082643;28;20112;-76
2022/05/30 13:31:10;;;;;;;13.05;7.10;;;563.80;2432.00;;;;;;5082507;28;20024;-75
2022/05/30 13:33:49;;;;;;;11.70;7.85;;;564.10;2432.00;;;;;;5082851;28;20017;-78
2022/05/30 13:36:29;;;;;;;12.48;7.60;;;564.10;2432.00;;;;;;5081105;28;20024;-75
2022/05/30 13:38:56;;;;;;;12.60;6.65;;;588.80;2432.00;;;;;;5082213;28;20029;-74
2022/05/30 13:41:40;;;;;;;12.48;7.32;;;588.90;2432.00;;;;;;5081335;28;20016;-75
2022/05/30 13:44:11;;;;;;;14.35;7.43;;;564.10;2432.00;;;;;;5083777;28;20021;-74
2022/05/30 13:47:01;;;;;;;10.90;6.68;;;564.00;2432.00;;;;;;5082300;28;20043;-75
2022/05/30 13:49:44;;;;;;;11.88;6.70;;;563.90;2432.00;;;;;;5083559;28;20108;-79
2022/05/30 13:52:17;;;;;;;11.55;8.20;;;563.90;2432.00;;;;;;5083391;28;20504;-75
2022/05/30 13:54:45;;;;;;;9.63;7.15;;;563.90;2432.00;;;;;;5082490;28;20106;-75
2022/05/30 13:57:13;;;;;;;12.00;6.65;;;563.90;2432.00;;;;;;5083942;28;20012;-75
2022/05/30 13:59:53;;;;;;;11.65;6.70;;;564.00;2432.00;;;;;;5082251;28;20036;-74
2022/05/30 14:02:30;;;;;;;14.05;7.03;;;563.90;2432.00;;;;;;5082541;28;20020;-73
2022/05/30 14:05:05;;;;;;;10.75;7.43;;;563.90;2432.00;;;;;;5082259;28;20078;-75
2022/05/30 14:07:41;;;;;;;9.82;6.82;;;563.90;2432.00;;;;;;5080118;28;20031;-74
2022/05/30 14:10:13;;;;;;;10.18;7.20;;;563.90;2432.00;;;;;;5081469;28;20105;-74
2022/05/30 14:12:43;;;;;;;11.70;6.90;;;563.80;2432.00;;;;;;5082433;28;20032;-74
2022/05/30 14:15:14;;;;;;;12.68;6.45;;;563.80;2432.00;;;;;;5081343;28;20481;-75
2022/05/30 14:17:40;;;;;;;13.00;7.13;;;563.80;2432.00;;;;;;5082754;28;20225;-75
2022/05/30 14:20:12;;;;;;;14.65;6.50;;;563.80;2432.00;;;;;;5088712;28;20044;-74
2022/05/30 14:22:51;;;;;;;11.35;6.88;;;563.70;2432.00;;;;;;5081448;28;20013;-75
2022/05/30 14:25:27;;;;;;;11.13;6.55;;;563.60;2432.00;;;;;;5082947;28;20055;-75
2022/05/30 14:27:52;;;;;;;10.88;7.13;;;563.50;2432.00;;;;;;5078152;28;20044;-76
2022/05/30 14:30:30;;;;;;;11.82;6.47;;;563.30;2432.00;;;;;;5091307;28;20132;-75
2022/05/30 14:33:27;;;;;;;18.27;7.63;;;563.20;2432.00;;;;;;5100083;28;20024;-75
2022/05/30 14:36:14;;;;;;;12.00;6.82;;;538.50;2406.40;;;;;;5092519;28;20035;-75
2022/05/30 14:38:44;;;;;;;11.82;7.13;;;538.50;2406.40;;;;;;5092256;28;20042;-76
2022/05/30 14:41:10;;;;;;;13.15;7.60;;;538.50;2406.40;;;;;;5091566;28;20027;-78
2022/05/30 14:43:49;;;;;;;12.40;7.10;;;538.50;2406.40;;;;;;5092368;28;20024;-76
2022/05/30 14:46:29;;;;;;;15.23;9.00;;;538.50;2406.40;;;;;;5092508;28;20055;-75
2022/05/30 14:48:55;;;;;;;12.27;7.10;;;563.20;2432.00;;;;;;5077007;28;20016;-78
2022/05/30 14:51:42;;;;;;;13.65;7.50;;;563.20;2432.00;;;;;;5090934;28;20077;-77
2022/05/30 14:54:12;;;;;;;12.82;8.10;;;563.40;2432.00;;;;;;5092039;28;20024;-78
2022/05/30 14:56:41;;;;;;;11.95;7.88;;;563.50;2432.00;;;;;;5092471;28;20428;-75
2022/05/30 14:59:08;;;;;;;15.20;9.40;;;563.60;2432.00;;;;;;5090717;28;20057;-74
2022/05/30 15:01:35;;;;;;;14.55;7.70;;;563.70;2432.00;;;;;;5092331;28;20469;-76
2022/05/30 15:04:05;;;;;;;11.23;7.68;;;563.60;2432.00;;;;;;5090692;28;20074;-74
2022/05/30 15:07:06;;;;;;;13.95;8.10;;;563.70;2432.00;;;;;;5092189;28;20047;-76
2022/05/30 15:09:35;;;;;;;9.98;6.78;;;563.60;2432.00;;;;;;5049914;28;20037;-75
2022/05/30 15:12:00;;;;;;;13.45;7.88;;;563.60;2432.00;;;;;;5049682;28;20033;-74
2022/05/30 15:14:28;;;;;;;10.77;6.63;;;563.60;2432.00;;;;;;5049814;28;20167;-76
2022/05/30 15:16:55;;;;;;;13.60;7.28;;;563.60;2432.00;;;;;;5039131;28;20034;-74
2022/05/30 15:19:21;;;;;;;13.98;7.85;;;563.40;2432.00;;;;;;5046523;28;20067;-74
2022/05/30 15:21:50;;;;;;;10.20;6.68;;;563.30;2432.00;;;;;;5049841;28;20025;-75
2022/05/30 15:24:19;;;;;;;10.73;6.60;;;538.50;2406.40;;;;;;5049422;28;20029;-75
2022/05/30 15:26:45;;;;;;;9.77;7.30;;;538.50;2406.40;;;;;;5049766;28;20031;-74
2022/05/30 15:29:13;;;;;;;9.73;6.70;;;538.30;2406.40;;;;;;5049119;28;20056;-74
2022/05/30 15:31:40;;;;;;;13.85;5.90;;;538.20;2406.40;;;;;;5049660;28;20061;-74
2022/05/30 15:34:06;;;;;;;10.50;6.80;;;538.10;2406.40;;;;;;5038755;28;20064;-74
2022/05/30 15:36:32;;;;;;;58.08;43.75;;;538.00;2406.40;;;;;;5039779;28;20108;-75
2022/05/30 15:38:58;;;;;;;18.15;12.25;;;538.00;2406.40;;;;;;5038302;28;20045;-76
2022/05/30 15:41:26;;;;;;;10.13;6.95;;;537.90;2406.40;;;;;;5039578;28;20488;-75
2022/05/30 15:43:52;;;;;;;12.50;6.32;;;537.80;2406.40;;;;;;5038194;28;20063;-76
2022/05/30 15:46:18;;;;;;;9.57;6.03;;;537.80;2406.40;;;;;;5065610;28;20428;-80
2022/05/30 15:48:44;;;;;;;9.35;6.15;;;537.80;2406.40;;;;;;5077149;28;20028;-77
2022/05/30 15:51:14;;;;;;;13.30;6.20;;;537.70;2406.40;;;;;;5081124;28;20478;-78
2022/05/30 15:59:25;;;;;;;9.07;6.03;;;537.70;2406.40;;;;;;5079120;28;20094;-76
2022/05/30 16:01:51;;;;;;;12.85;6.57;;;537.80;2406.40;;;;;;5081598;28;20023;-78
2022/05/30 16:04:17;;;;;;;9.15;6.15;;;537.70;2406.40;;;;;;5079424;28;20028;-75
2022/05/30 16:06:45;;;;;;;12.30;6.05;;;537.70;2406.40;;;;;;5085359;28;20012;-75
2022/05/30 16:09:13;;;;;;;8.77;5.15;;;537.70;2406.40;;;;;;5084865;28;20019;-75
2022/05/30 16:11:41;;;;;;;12.48;5.47;;;537.60;2406.40;;;;;;5083952;28;20016;-74
2022/05/30 16:14:07;;;;;;;9.85;6.00;;;537.60;2406.40;;;;;;5084168;28;20012;-74
2022/05/30 16:16:33;;;;;;;9.00;5.22;;;537.70;2406.40;;;;;;5092171;28;20024;-75
2022/05/30 16:18:59;;;;;;;10.48;5.70;;;537.80;2406.40;;;;;;5095426;28;20085;-74
2022/05/30 16:21:26;;;;;;;7.32;5.25;;;537.90;2406.40;;;;;;5092155;28;20062;-74
2022/05/30 16:23:57;;;;;;;10.23;5.28;;;537.90;2406.40;;;;;;5084943;28;20044;-74
2022/05/30 16:26:27;;;;;;;40.17;30.20;;;538.00;2406.40;;;;;;5083932;28;20024;-76
2022/05/30 16:28:53;;;;;;;8.52;6.13;;;537.90;2406.40;;;;;;5083586;28;20536;-77
2022/05/30 16:31:18;;;;;;;11.43;6.13;;;538.00;2406.40;;;;;;5088801;28;20024;-75
2022/05/30 16:33:45;;;;;;;15.98;6.15;;;538.10;2406.40;;;;;;5094716;28;20020;-74
2022/05/30 16:36:11;;;;;;;10.57;6.15;;;538.10;2406.40;;;;;;5095020;28;20417;-74
2022/05/30 16:38:37;;;;;;;8.82;5.47;;;538.20;2406.40;;;;;;5094499;28;20401;-74
2022/05/30 16:41:03;;;;;;;66.32;50.72;;;538.30;2406.40;;;;;;5094798;28;20030;-75
2022/05/30 16:43:28;;;;;;;19.13;13.20;;;538.50;2406.40;;;;;;5094673;28;20034;-75
2022/05/30 16:45:55;;;;;;;9.60;5.78;;;538.50;2406.40;;;;;;5094576;28;20032;-74
2022/05/30 16:48:34;;;;;;;13.05;5.78;;;538.50;2406.40;;;;;;5091534;28;20016;-74
2022/05/30 16:51:02;;;;;;;9.25;5.40;;;538.30;2406.40;;;;;;5084717;28;20025;-77
2022/05/30 16:53:28;;;;;;;13.15;6.78;;;538.20;2406.40;;;;;;5084783;28;20028;-74
2022/05/30 16:55:55;;;;;;;10.18;5.97;;;538.20;2406.40;;;;;;5082432;28;20537;-74
2022/05/30 16:58:23;;;;;;;15.23;6.70;;;538.00;2406.40;;;;;;5085428;28;20053;-75
2022/05/30 17:00:50;;;;;;;13.43;6.55;;;538.10;2406.40;;;;;;5087382;28;20051;-75
2022/05/30 17:03:16;;;;;;;10.13;6.22;;;538.00;2406.40;;;;;;5084180;28;20024;-74
2022/05/30 17:05:44;;;;;;;9.32;5.78;;;538.00;2406.40;;;;;;5084801;28;20028;-74
2022/05/30 17:08:13;;;;;;;13.35;6.25;;;537.90;2406.40;;;;;;5082951;28;20349;-74
2022/05/30 17:10:39;;;;;;;9.40;6.63;;;537.80;2406.40;;;;;;5083255;28;20016;-75
2022/05/30 17:13:06;;;;;;;11.75;7.18;;;537.80;2406.40;;;;;;5084878;28;20481;-74
2022/05/30 17:15:32;;;;;;;10.82;5.85;;;537.80;2406.40;;;;;;5084592;28;20021;-74
2022/05/30 17:18:00;;;;;;;13.32;5.95;;;537.70;2406.40;;;;;;5078617;28;20043;-74
2022/05/30 17:20:33;;;;;;;22.65;6.80;;;537.60;2406.40;;;;;;5076317;28;20020;-76
2022/05/30 17:22:59;;;;;;;11.80;6.88;;;537.70;2406.40;;;;;;5086633;28;20465;-77
2022/05/30 17:25:26;;;;;;;13.40;8.05;;;537.60;2406.40;;;;;;5082939;28;20027;-75
2022/05/30 17:30:39;;;;;;;11.15;7.03;;;512.90;2380.80;;;;;;5085771;28;20043;-76
2022/05/30 17:33:05;;;;;;;10.15;7.05;;;512.90;2380.80;;;;;;5079211;28;20497;-78
2022/05/30 17:35:31;;;;;;;12.07;7.85;;;512.90;2380.80;;;;;;5075352;28;20031;-76
2022/05/30 17:37:58;;;;;;;13.68;7.10;;;512.80;2380.80;;;;;;5080059;28;20017;-75
2022/05/30 17:40:24;;;;;;;13.27;8.13;;;512.70;2380.80;;;;;;5075046;28;20062;-74
2022/05/30 17:42:49;;;;;;;12.30;8.18;;;512.70;2380.80;;;;;;5076076;28;20035;-74
2022/05/30 17:45:15;;;;;;;12.63;7.65;;;512.60;2380.80;;;;;;5075014;28;20032;-75
2022/05/30 17:47:55;;;;;;;12.80;7.78;;;512.50;2380.80;;;;;;5076809;28;20532;-75
2022/05/30 17:50:29;;;;;;;16.52;8.63;;;512.40;2380.80;;;;;;5078150;28;20016;-75
2022/05/30 17:52:59;;;;;;;14.57;8.48;;;512.40;2380.80;;;;;;5082542;28;20028;-75
2022/05/30 17:55:30;;;;;;;12.65;8.30;;;512.40;2380.80;;;;;;5082430;28;20044;-76